Weather observations for the past three days for
San Bernardino Intl. Airport
Metric (Imperial)
Date Time (pdt) Wind (kph) Vis. (km) Weather Sky Cond. Temperature (ºC) Relative Humidity Wind Chill (°C) Heat Index (°C) Pressure Precipitation (cm)
Air Dwpt 6 hour altimeter (cm) sea level (mb) 1 hr 3 hr 6 hr
Max. Min.
07 07:00 Calm 16.09 Fair CLR 13 8 72% 76.25 0.0
07 05:40 Calm 16.09 Fair CLR 12 7.2 73% 76.23 0.0
07 05:20 Calm 16.09 Fair CLR 12.2 7.6 74% 76.23 0.0
07 05:00 Calm 16.09 Fair CLR 12.3 7.6 73% 76.23 0.0
07 04:40 Calm 16.09 Fair CLR 12.7 7.7 72% 76.25 0.0
07 04:20 Calm 16.09 Fair CLR 13 8 72% 76.25 0.0
07 04:00 Calm 16.09 Fair CLR 13.1 8.1 72% 76.25 0.0
07 03:40 Calm 16.09 Fair CLR 13.4 8.2 71% 76.28 0.0
07 03:20 Calm 16.09 Fair CLR 13.1 8 71% 76.28 0.0
07 03:00 Calm 16.09 Fair CLR 13.7 8.4 71% 76.28 0.0
07 02:40 Calm 16.09 Fair CLR 13.8 8.3 70% 76.28 0.0
07 02:20 Calm 16.09 Fair CLR 14.3 8.6 69% 76.3 0.0
07 02:00 Calm 16.09 Fair CLR 14.6 8.4 67% 76.33 0.0
07 01:41 Calm 16.09 Fair CLR 15.2 8.9 66% 76.33 0.0
07 01:20 Calm 16.09 Fair CLR 15.6 8.7 64% 76.33 0.0
07 01:00 Calm 16.09 Fair CLR 16 8.3 60% 76.33 0.0
07 00:40 Calm 16.09 Fair CLR 16.2 8.3 60% 76.33 0.0
07 00:20 Calm 16.09 Fair CLR 16.2 8.4 60% 76.35 0.0
07 00:00 W 9 16.09 Fair CLR 16 8.4 61% 76.35 0.0
06 23:40 Calm 16.09 Fair CLR 16.7 8.5 59% 76.35 0.0
06 23:20 W 6 16.09 Fair CLR 16.6 8.3 58% 76.35 0.0
06 23:00 Calm 16.09 Fair CLR 17.4 8.5 56% 76.35 0.0
06 22:40 Calm 16.09 Fair CLR 17.4 8.5 56% 76.35 0.0
06 22:20 Calm 16.09 Fair CLR 17.7 8.5 55% 76.35 0.0
06 22:00 SW 7 16.09 Fair CLR 17.9 8.5 54% 76.35 0.0
06 21:40 SW 9 16.09 Fair CLR 18.1 8.5 54% 76.33 0.0
06 20:50 W 11 16.09 Fair CLR 19 8 49% 76.3 0.0
06 19:50 W 15 16.09 Fair CLR 21 8 43% 76.23 0.0
06 18:51 W 19 16.09 Fair CLR 24 8 36% 25 76.17 0.0
06 17:54 NW 6 16.09 Fair CLR 25 6 30% 25 76.15 0.0
06 16:51 W 11 16.09 Fair CLR 26 6 28% 26 76.15 0.0
06 15:51 SW 11 16.09 Fair CLR 25 5 28% 25 76.17 0.0
06 14:55 SW 6 16.09 Fair CLR 25 5 28% 25 76.2 0.0
06 13:51 NW 6 16.09 Fair CLR 23 5 31% 76.28 0.0
06 12:48 Calm 16.09 Fair CLR 0 0 0% 76.33 0.0
06 11:52 Calm 16.09 Fair CLR 20 4 35% 76.38 0.0
06 10:57 Calm 16.09 Fair CLR 19 4 37% 76.43 0.0
06 09:53 Calm 16.09 Fair CLR 17 4 42% 76.43 0.0
06 08:53 Calm 16.09 Fair CLR 14 6 59% 76.43 0.0
06 07:54 Calm 16.09 Fair CLR 0 0 0% 76.43 0.0
06 07:00 Calm 16.09 Fair CLR 10 6 76% 76.43 0.0
06 05:40 Calm 16.09 Fair CLR 9.5 4.9 73% 76.35 0.0
06 05:20 Calm 16.09 Fair CLR 9.7 5.2 74% 76.33 0.0
06 05:00 Calm 16.09 Fair CLR 9.7 5.5 75% 76.35 0.0
06 04:40 Calm 16.09 Fair CLR 10 5.6 74% 76.33 0.0
06 04:20 Calm 16.09 Fair CLR 10.1 5.5 73% 76.33 0.0
06 04:00 Calm 16.09 Fair CLR 10.2 5.2 71% 76.33 0.0
06 03:40 Calm 16.09 Fair CLR 11 5.3 68% 76.33 0.0
06 03:21 Calm 16.09 Fair CLR 11.3 5.8 69% 76.33 0.0
06 03:00 Calm 16.09 Fair CLR 11.7 5.6 66% 76.33 0.0
06 02:40 Calm 16.09 Fair CLR 11.6 6.1 69% 76.33 0.0
06 02:20 Calm 16.09 Fair CLR 12.3 5.3 63% 76.33 0.0
06 02:00 Calm 16.09 Fair CLR 12.4 5.2 62% 76.33 0.0
06 01:40 Calm 16.09 Fair CLR 12.5 5.5 63% 76.35 0.0
06 01:20 Calm 16.09 Fair CLR 13.1 5 58% 76.38 0.0
06 01:00 Calm 16.09 Partly Cloudy SCT048 13.4 5 57% 76.38 0.0
06 00:41 Calm 16.09 Mostly Cloudy BKN048 13.3 5.3 59% 76.38 0.0
06 00:20 Calm 16.09 Mostly Cloudy BKN048 13.5 5.5 59% 76.38 0.0
06 00:00 Calm 16.09 Partly Cloudy SCT055 13.6 5.7 59% 76.38 0.0
05 23:40 W 6 16.09 Overcast OVC055 13.7 6 60% 76.35 0.0
05 23:20 W 7 16.09 Overcast OVC055 13.7 6 60% 76.35 0.0
05 23:00 W 6 16.09 Mostly Cloudy BKN055 13.5 5.9 60% 76.33 0.0
05 22:40 W 7 16.09 Fair CLR 13.4 5.5 59% 76.33 0.0
05 22:20 W 11 16.09 Partly Cloudy SCT050 13.8 5.3 57% 76.3 0.0
05 22:00 W 13 16.09 Fair CLR 14.2 5 54% 76.28 0.0
05 21:40 W 9 16.09 Partly Cloudy SCT065 14.3 4.7 53% 76.25 0.0
05 20:51 SW 11 16.09 Overcast OVC050 16 4 45% 76.2 0.0
05 19:53 SW 11 16.09 Mostly Cloudy BKN050 17 3 39% 76.12 0.0
05 18:56 SW 19 16.09 Mostly Cloudy BKN050 17 3 39% 76.07 0.0
05 17:51 W 15 11.27 Partly Cloudy SCT050 18 4 40% 76.05 0.0
05 16:51 W 13 11.27 Mostly Cloudy BKN045 BKN050 18 4 40% 76.05 0.0
05 15:52 W 15 11.27 Mostly Cloudy BKN080 18 5 43% 76.05 0.0
05 14:55 W 19 G 28 11.27 Overcast SCT048 OVC080 18 5 43% 76.07 0.0
05 13:52 N 6 11.27 Overcast OVC080 18 3 37% 76.1 0.0
05 12:59 Calm 11.27 Mostly Cloudy BKN080 18 4 40% 76.12 0.0
05 11:51 E 6 16.09 Overcast SCT031 OVC070 16 6 52% 76.15 0.0
05 10:53 SW 7 11.27 Mostly Cloudy BKN070 15 7 59% 76.15 0.0
05 09:52 Calm 11.27 Mostly Cloudy SCT015 SCT035 BKN070 13 8 72% 76.12 0.0
05 08:55 Calm 11.27 Overcast SCT018 OVC026 12 8 77% 76.1 0.0
05 07:54 Calm 9.66 Fog/Mist BKN038 OVC055 11 8 82% 76.07 0.0
05 07:00 Calm 8.05 Fog/Mist BKN008 OVC015 11 8 82% 76.05 0.0
05 05:40 W 11 11.27 Heavy Rain BKN009 OVC013 11.5 8 79% 76.02 0.0 0.05
05 05:20 W 6 16.09 Rain BKN011 OVC017 12 7.8 76% 76 0.0
05 05:00 W 6 16.09 Overcast SCT011 OVC015 12.1 7.8 75% 76.02 0.0
05 04:40 SW 6 16.09 Overcast BKN017 OVC023 12.7 7 69% 76.02 0.0
05 04:20 Calm 16.09 Overcast OVC019 12.7 7 69% 76.02 0.0
05 04:00 SE 6 16.09 Overcast OVC019 12.6 7.1 69% 76.02 0.0
05 03:41 SE 7 16.09 Overcast BKN019 OVC030 12.7 7.1 69% 76.02 0.0
05 03:20 Calm 16.09 Overcast SCT019 OVC030 13 7 67% 76.02 0.0
05 03:00 Calm 16.09 Overcast OVC030 12.7 6.6 67% 76.02 0.0
05 02:40 Calm 16.09 Overcast OVC030 12.9 6.7 66% 76.05 0.0
05 02:20 S 6 16.09 Overcast OVC032 13 6.6 65% 76.05 0.0
05 02:00 SW 6 16.09 Overcast BKN035 OVC041 13 6.6 65% 76.07 0.0
05 01:40 Calm 16.09 Overcast BKN041 OVC047 13 6.3 64% 76.07 0.0
05 01:22 W 6 16.09 Overcast SCT040 OVC050 12.7 6.3 65% 76.1 0.0
05 01:00 SW 7 16.09 Overcast SCT048 OVC060 12.8 6 64% 76.12 0.0
05 00:40 SW 9 16.09 Light Drizzle OVC044 13.1 6.6 65% 76.12 0.0
05 00:20 SW 7 16.09 Overcast OVC042 13.4 7 65% 76.12 0.0
05 00:00 W 9 16.09 Overcast SCT022 OVC040 13.7 6.6 62% 76.12 0.0
04 23:40 W 7 16.09 Overcast SCT022 BKN038 OVC070 13.8 6.3 61% 76.12 0.0
04 23:20 W 9 16.09 Overcast SCT025 BKN060 OVC075 13.8 6 60% 76.12 0.0
04 23:00 SW 7 16.09 Overcast BKN025 BKN060 OVC075 13.9 6.2 60% 76.15 0.0
04 22:40 SW 7 16.09 Overcast BKN025 BKN060 OVC080 14 6.6 61% 76.15 0.0
04 22:20 SW 11 16.09 Overcast SCT027 BKN032 OVC080 14.3 6.3 59% 76.15 0.0
04 22:00 SW 11 16.09 Overcast BKN029 OVC036 14.3 6 58% 76.15 0.0
04 21:40 W 11 16.09 Overcast BKN029 BKN034 OVC075 14.5 6 57% 76.15 0.0
04 20:51 W 11 16.09 Overcast OVC080 15 5 51% 76.12 0.0
04 19:55 W 22 G 33 16.09 Overcast OVC080 16 5 48% 76.1 0.0
04 17:54 SW 26 G 37 16.09 Overcast OVC060 17 5 45% 76.1 0.0
04 16:55 W 22 G 31 16.09 Overcast SCT050 OVC065 18 4 40% 76.07 0.0
04 15:52 W 19 11.27 Overcast SCT050 OVC065 19 3 35% 76.07 0.0
04 14:56 W 17 11.27 Overcast OVC075 20 2 30% 76.12 0.0
04 13:56 SW 22 G 31 16.09 Overcast SCT055 OVC065 19 2 32% 76.17 0.0
04 12:55 W 13 16.09 Overcast SCT050 BKN060 OVC070 18 2 34% 76.2 0.0
04 11:52 Calm 16.09 Mostly Cloudy SCT050 BKN060 18 3 37% 76.2 0.0
04 11:51 Calm 16.09 Mostly Cloudy SCT050 BKN060 18 3 37% 76.2 0.0
04 10:55 SW 6 16.09 Mostly Cloudy SCT038 BKN060 18 4 40% 76.2 0.0
04 09:54 Calm 11.27 Mostly Cloudy BKN034 16 5 48% 76.2 0.0
04 08:55 Calm 11.27 Mostly Cloudy BKN055 14 5 55% 76.17 0.0
04 07:54 SW 6 11.27 Mostly Cloudy SCT048 BKN060 13 6 63% 76.17 0.0
Date Time (pdt) Wind (kph) Vis. (km) Weather Sky Cond. Air Dwpt Max. Min. Relative Humidity Wind Chill (°C) Heat Index (°C) altimeter (cm) sea level (mb) 1 hr 3 hr 6 hr
6 hour
Temperature (ºC) Pressure Precipitation (cm)